Observations for NORWICH WEA CNTRE, United Kingdom (EGSH)

EGSH 250320Z AUTO 24006KT 9999 NCD M02/M02 Q1011
EGSH 250250Z AUTO 26004KT 9999 NCD M01/M02 Q1011
EGSH 250220Z AUTO 26007KT 9999 NCD 00/M01 Q1011 
EGSH 250150Z AUTO 25008KT 9999 NCD 00/M01 Q1011 
EGSH 250120Z AUTO 24007KT 9999 NCD M00/M01 Q1011
EGSH 250050Z AUTO 23006KT 9999 NCD M00/M01 Q1011
EGSH 250020Z AUTO 22004KT 9999 NCD M01/M02 Q1011
EGSH 242350Z AUTO 22005KT 9999 NCD M01/M01 Q1011
EGSH 242320Z AUTO 20005KT 9999 NCD M01/M01 Q1011
EGSH 242250Z AUTO 22005KT 9999 NCD M01/M01 Q1012
EGSH 242220Z 23004KT CAVOK M00/M01 Q1012 NOSIG  
EGSH 242150Z 23006KT CAVOK 00/M01 Q1012 NOSIG   
EGSH 242120Z 24006KT CAVOK M00/M01 Q1012 NOSIG  
EGSH 242050Z 25007KT CAVOK M00/M01 Q1012 NOSIG  
EGSH 242020Z 24007KT CAVOK 00/M01 Q1012 NOSIG   
EGSH 241950Z 23006KT CAVOK 02/00 Q1012 NOSIG
EGSH 241920Z 23007KT CAVOK 02/00 Q1012 NOSIG
EGSH 241850Z 23004KT CAVOK 01/M00 Q1012 NOSIG   
EGSH 241820Z 22006KT CAVOK 01/00 Q1012 NOSIG
EGSH 241750Z 21005KT CAVOK 02/00 Q1012 NOSIG
EGSH 241720Z 22005KT CAVOK 02/00 Q1012 NOSIG
EGSH 241650Z 23005KT CAVOK 03/01 Q1012 NOSIG
EGSH 241620Z 24004KT CAVOK 04/01 Q1012 NOSIG
EGSH 241550Z 25004KT CAVOK 04/01 Q1011 NOSIG
EGSH 241520Z 23005KT CAVOK 05/02 Q1011 NOSIG
EGSH 241450Z 25006KT CAVOK 06/02 Q1011 NOSIG
EGSH 241420Z 26005KT CAVOK 07/02 Q1011 NOSIG
EGSH 241350Z 25007KT CAVOK 07/02 Q1010 NOSIG
EGSH 241320Z 27007KT CAVOK 08/03 Q1010 NOSIG
EGSH 241250Z 27005KT 240V310 CAVOK 08/03 Q1010 NOSIG
EGSH 241220Z 27007KT CAVOK 07/03 Q1010 NOSIG
EGSH 241150Z 27007KT CAVOK 07/03 Q1010 NOSIG
EGSH 241120Z 28008KT CAVOK 07/03 Q1010 NOSIG
EGSH 241050Z 28007KT CAVOK 07/03 Q1010 NOSIG
EGSH 241020Z 26005KT 230V290 CAVOK 06/03 Q1010 NOSIG
EGSH 240950Z 25006KT CAVOK 05/03 Q1010 NOSIG
EGSH 240920Z 25005KT CAVOK 04/03 Q1009 NOSIG
EGSH 240850Z 25006KT CAVOK 02/02 Q1009 NOSIG
EGSH 240820Z 26005KT CAVOK 02/01 Q1009 NOSIG
EGSH 240750Z 25005KT CAVOK 02/01 Q1008 NOSIG
EGSH 240720Z 25004KT CAVOK 03/02 Q1008 NOSIG
EGSH 240650Z 24003KT CAVOK 04/02 Q1007 NOSIG
EGSH 240620Z 26005KT CAVOK 03/02 Q1007 NOSIG
EGSH 240550Z 27005KT CAVOK 04/02 Q1007 NOSIG
EGSH 240520Z AUTO 27005KT 9999 NCD 04/02 Q1006  
EGSH 240450Z AUTO 28006KT 9999 NCD 05/03 Q1006  
EGSH 240420Z AUTO 27004KT 9999 NCD 04/03 Q1006  
EGSH 240350Z AUTO 28005KT 9999 NCD 05/03 Q1005  
EGSH 240320Z AUTO 25004KT 9999 NCD 04/03 Q1005  
EGSH 240250Z AUTO 27004KT 9999 NCD 05/04 Q1005